CDT,Max TemperatureF,Mean TemperatureF,Min TemperatureF,Max Dew PointF,MeanDew PointF,Min DewpointF,Max Humidity, Mean Humidity, Min Humidity, Max Sea Level PressureIn, Mean Sea Level PressureIn, Min Sea Level PressureIn, Max VisibilityMiles, Mean VisibilityMiles, Min VisibilityMiles, Max Wind SpeedMPH, Mean Wind SpeedMPH, Max Gust SpeedMPH,PrecipitationIn, CloudCover, Events, WindDirDegrees
2013-4-1,78,66,55,59,56,51,100,84,40,30.08,30.00,29.93,10,7,0,10,5,,0.00,3,Fog,336
2013-4-2,75,62,50,60,53,48,94,71,40,30.12,30.06,29.99,10,9,2,14,4,20,0.01,1,,111
2013-4-3,68,62,55,63,57,50,94,89,75,30.06,29.95,29.77,10,5,1,45,9,51,2.51,8,Rain-Thunderstorm,38
2013-4-4,64,58,53,55,51,47,94,83,70,29.99,29.94,29.90,10,8,2,15,6,24,0.00,8,,321
2013-4-5,71,60,50,48,46,43,86,70,41,30.13,30.05,29.99,10,10,10,16,11,22,0.00,5,,337
2013-4-6,69,56,45,55,49,43,93,72,47,30.18,30.12,30.09,10,10,8,10,3,16,0.00,0,,148
2013-4-7,72,62,52,62,57,50,93,75,59,30.13,30.07,30.02,10,10,9,13,7,21,0.00,2,,132
2013-4-8,77,70,64,68,65,62,93,82,67,30.06,30.01,29.97,10,10,9,20,10,24,0.00,4,,130
2013-4-9,79,74,69,70,68,66,94,86,74,30.06,30.01,29.95,10,8,6,21,14,29,0.00,7,,130
2013-4-10,79,74,69,70,68,66,93,85,72,30.00,29.94,29.87,10,9,7,21,13,29,0.00,6,,129
2013-4-11,79,68,55,72,65,53,94,88,78,29.85,29.71,29.62,10,6,0,20,13,30,1.46,7,Fog-Rain-Thunderstorm,253
2013-4-12,77,62,50,54,47,43,90,64,32,29.98,29.91,29.83,10,10,10,15,9,21,0.00,1,,346
2013-4-13,75,62,51,57,50,45,86,63,38,30.05,29.98,29.90,10,10,10,14,5,,0.00,1,,101
2013-4-14,69,62,57,63,58,54,94,86,70,29.92,29.83,29.77,10,7,0,36,10,60,3.21,7,Fog-Rain-Thunderstorm,40
2013-4-15,77,68,62,70,68,61,94,89,81,30.01,29.93,29.82,10,8,2,16,6,23,0.00,8,,123
2013-4-16,80,76,71,73,71,69,100,89,79,30.11,30.07,30.00,10,6,0,17,12,20,0.00,6,Fog,129
2013-4-17,80,74,69,72,70,67,94,86,74,30.11,30.05,30.00,10,8,4,18,10,25,0.00,3,,118
2013-4-18,79,74,71,73,70,67,94,86,74,29.98,29.90,29.85,10,8,6,18,14,25,0.00,7,,146
2013-4-19,75,60,46,73,53,42,94,86,66,30.19,29.99,29.81,10,6,1,21,12,30,1.11,6,Rain,309
2013-4-20,71,56,42,48,40,35,93,60,28,30.27,30.19,30.12,10,10,6,12,4,17,0.00,0,,32
2013-4-21,71,60,50,54,47,40,89,62,38,30.21,30.17,30.12,10,10,10,14,6,16,0.00,0,,78
2013-4-22,75,63,53,63,57,47,89,77,68,30.13,30.09,30.05,10,10,9,15,6,,0.00,2,,105
2013-4-23,75,70,66,65,64,61,88,79,69,30.11,30.06,30.04,10,10,7,18,13,22,0.00,5,,131
2013-4-24,73,67,59,68,66,57,94,87,76,30.16,30.08,30.02,10,6,1,22,9,31,0.53,7,Rain-Thunderstorm,148
2013-4-25,78,66,55,59,53,47,93,70,47,30.30,30.23,30.16,10,10,5,13,9,22,0.00,4,,15
2013-4-26,75,66,57,62,53,44,90,62,41,30.29,30.25,30.22,10,10,8,14,6,22,0.00,3,,101
2013-4-27,77,69,63,68,66,61,93,84,74,30.20,30.13,30.06,10,8,4,16,4,20,0.00,2,,147
2013-4-28,77,70,64,70,68,61,94,87,71,30.06,30.02,29.95,10,7,4,13,4,,0.02,6,Rain-Thunderstorm,162
2013-4-29,80,72,64,67,64,60,93,78,61,29.99,29.94,29.89,10,10,7,10,3,,0.01,3,Rain,97
2013-4-30,78,71,64,69,66,63,94,88,68,29.94,29.90,29.87,10,7,2,18,5,24,0.72,6,Rain-Thunderstorm,74